createdAt,value
2023-02-23T00:00:59.175Z,79.68
2023-02-23T00:04:25.016Z,80.32
2023-02-23T00:07:51.956Z,81.32
2023-02-23T00:11:21.358Z,81.67
2023-02-23T00:14:47.306Z,81.14
2023-02-23T00:18:15.302Z,80.44
2023-02-23T00:21:41.203Z,79.66
2023-02-23T00:25:10.213Z,80.72
2023-02-23T00:28:39.412Z,80.37
2023-02-23T00:32:05.110Z,80.89
2023-02-23T00:35:33.014Z,80.88
2023-02-23T00:39:00.177Z,80.27
2023-02-23T00:42:26.224Z,80.32
2023-02-23T00:45:58.929Z,81.49
2023-02-23T00:49:25.059Z,81.55
2023-02-23T00:52:50.250Z,81.13
2023-02-23T00:56:17.325Z,80.77
2023-02-23T00:59:42.524Z,80.81
2023-02-23T01:03:09.370Z,80.77
2023-02-23T01:06:34.984Z,80.78
2023-02-23T01:10:01.017Z,81.68
2023-02-23T01:13:29.194Z,80.58
2023-02-23T01:16:55.028Z,81.18
2023-02-23T01:20:23.309Z,81.69
2023-02-23T01:23:49.028Z,81.51
2023-02-23T01:27:17.210Z,81.86
2023-02-23T01:30:43.395Z,81.43
2023-02-23T01:34:11.220Z,83.30
2023-02-23T01:37:42.707Z,83.37
2023-02-23T01:41:10.050Z,84.75
2023-02-23T01:45:25.540Z,83.54
2023-02-23T01:48:51.974Z,83.98
2023-02-23T01:52:20.058Z,84.25
2023-02-23T01:55:50.867Z,84.93
2023-02-23T01:59:18.992Z,85.54
2023-02-23T02:02:45.430Z,85.79
2023-02-23T02:06:15.371Z,86.24
2023-02-23T02:09:44.041Z,86.44
2023-02-23T02:13:16.010Z,86.53
2023-02-23T02:17:03.651Z,87.94
2023-02-23T02:21:08.393Z,89.08
2023-02-23T02:25:07.120Z,91.20
2023-02-23T02:28:56.055Z,91.78
2023-02-23T02:32:57.419Z,91.95
2023-02-23T02:37:02.372Z,92.30
2023-02-23T02:40:34.440Z,91.88
2023-02-23T02:44:06.204Z,92.38
2023-02-23T02:47:39.210Z,91.85
2023-02-23T02:51:11.275Z,92.23
2023-02-23T02:54:42.218Z,92.01
2023-02-23T02:58:13.374Z,92.38
2023-02-23T03:01:55.363Z,91.18
2023-02-23T03:05:39.847Z,90.91
2023-02-23T03:09:31.314Z,90.25
2023-02-23T03:13:26.288Z,90.23
2023-02-23T03:17:19.249Z,91.81
2023-02-23T03:21:07.298Z,91.17
2023-02-23T03:24:59.470Z,91.94
2023-02-23T03:28:51.180Z,90.76
2023-02-23T03:32:44.243Z,90.97
2023-02-23T03:36:30.477Z,91.19
2023-02-23T03:40:19.314Z,89.89
2023-02-23T03:44:06.958Z,90.14
2023-02-23T03:47:55.822Z,91.09
2023-02-23T03:51:40.446Z,90.21
2023-02-23T03:55:27.738Z,90.34
2023-02-23T03:59:17.102Z,90.13
2023-02-23T04:03:03.142Z,90.66
2023-02-23T04:06:49.128Z,91.10
2023-02-23T04:10:33.666Z,91.01
2023-02-23T04:14:03.449Z,90.88
2023-02-23T04:17:29.474Z,90.55
2023-02-23T04:20:58.477Z,91.15
2023-02-23T04:24:23.146Z,91.39
2023-02-23T04:27:50.457Z,91.67
2023-02-23T04:31:16.452Z,90.65
2023-02-23T04:34:41.474Z,91.97
2023-02-23T04:38:09.611Z,90.75
2023-02-23T04:41:36.459Z,92.10
2023-02-23T04:45:01.528Z,90.95
2023-02-23T04:48:29.029Z,91.10
2023-02-23T04:51:53.490Z,91.02
2023-02-23T04:55:24.548Z,90.69
2023-02-23T04:58:50.506Z,91.07
2023-02-23T05:02:14.494Z,90.88
2023-02-23T05:05:39.394Z,90.20
2023-02-23T05:09:04.404Z,90.47
2023-02-23T05:12:31.047Z,90.09
2023-02-23T05:15:59.934Z,90.52
2023-02-23T05:19:23.419Z,90.90
2023-02-23T05:22:47.097Z,91.09
2023-02-23T05:26:12.612Z,89.82
2023-02-23T05:29:38.443Z,90.57
2023-02-23T05:33:02.246Z,90.43
2023-02-23T05:36:26.314Z,90.24
2023-02-23T05:39:51.111Z,90.41
2023-02-23T05:43:14.895Z,90.18
2023-02-23T05:46:40.300Z,89.54
2023-02-23T05:50:04.387Z,90.37
2023-02-23T05:53:28.071Z,90.60
2023-02-23T05:56:51.648Z,90.33
2023-02-23T06:00:16.137Z,90.60
2023-02-23T06:03:41.331Z,90.05
2023-02-23T06:07:04.725Z,90.16
2023-02-23T06:10:28.806Z,89.88
2023-02-23T06:13:52.792Z,90.34
2023-02-23T06:17:35.207Z,90.28
2023-02-23T06:21:01.559Z,89.89
2023-02-23T06:24:24.926Z,90.02
2023-02-23T06:27:48.184Z,90.24
2023-02-23T06:31:11.414Z,89.86
2023-02-23T06:34:37.480Z,89.99
2023-02-23T06:38:01.354Z,89.90
2023-02-23T06:41:25.335Z,89.13
2023-02-23T06:44:50.150Z,88.95
2023-02-23T06:48:13.008Z,88.18
2023-02-23T06:51:38.352Z,89.03
2023-02-23T06:55:02.309Z,89.12
2023-02-23T06:58:25.350Z,87.93
2023-02-23T07:01:48.902Z,87.49
2023-02-23T07:05:12.518Z,87.42
2023-02-23T07:08:38.446Z,87.29
2023-02-23T07:12:02.331Z,87.34
2023-02-23T07:15:25.373Z,87.56
2023-02-23T07:18:49.365Z,87.85
2023-02-23T07:22:14.363Z,87.13
2023-02-23T07:25:39.594Z,87.50
2023-02-23T07:29:03.490Z,87.26
2023-02-23T07:32:27.097Z,87.80
2023-02-23T07:35:51.949Z,86.99
2023-02-23T07:39:15.326Z,86.85
2023-02-23T07:42:41.051Z,85.83
2023-02-23T07:46:05.273Z,86.75
2023-02-23T07:49:29.333Z,86.27
2023-02-23T07:52:53.316Z,86.33
2023-02-23T07:56:16.997Z,86.58
2023-02-23T07:59:42.395Z,85.70
2023-02-23T08:03:06.187Z,85.92
2023-02-23T08:06:29.988Z,85.94
2023-02-23T08:09:53.338Z,86.95
2023-02-23T08:13:18.352Z,86.43
2023-02-23T08:16:43.445Z,85.56
2023-02-23T08:20:08.568Z,85.82
2023-02-23T08:23:33.366Z,85.48
2023-02-23T08:26:57.445Z,85.47
2023-02-23T08:30:22.563Z,85.52
2023-02-23T08:33:47.984Z,85.29
2023-02-23T08:37:11.454Z,84.68
2023-02-23T08:40:35.541Z,86.16
2023-02-23T08:44:00.043Z,85.38
2023-02-23T08:47:23.927Z,85.83
2023-02-23T08:50:51.384Z,84.99
2023-02-23T08:54:16.900Z,85.69
2023-02-23T08:57:42.219Z,84.41
2023-02-23T09:01:05.621Z,84.39
2023-02-23T09:04:29.669Z,84.06
2023-02-23T09:07:55.463Z,84.31
2023-02-23T09:11:19.697Z,85.49
2023-02-23T09:14:43.450Z,84.93
2023-02-23T09:18:07.244Z,84.72
2023-02-23T09:21:31.328Z,83.74
2023-02-23T09:24:56.340Z,83.44
2023-02-23T09:28:21.551Z,84.04
2023-02-23T09:31:46.209Z,83.85
2023-02-23T09:35:11.363Z,83.48
2023-02-23T09:38:35.552Z,84.44
2023-02-23T09:42:11.306Z,84.16
2023-02-23T09:45:41.391Z,83.32
2023-02-23T09:49:06.548Z,82.80
2023-02-23T09:52:39.911Z,83.05
2023-02-23T09:56:05.783Z,83.33
2023-02-23T09:59:32.633Z,82.41
2023-02-23T10:03:29.802Z,81.64
2023-02-23T10:07:01.160Z,82.62
2023-02-23T10:10:31.711Z,83.45
2023-02-23T10:14:10.631Z,81.06
2023-02-23T10:17:46.788Z,82.24
2023-02-23T10:21:20.998Z,81.41
2023-02-23T10:24:49.792Z,81.07
2023-02-23T10:28:18.107Z,81.07
2023-02-23T10:31:50.599Z,80.84
2023-02-23T10:35:24.484Z,80.14
2023-02-23T10:38:50.436Z,80.76
2023-02-23T10:42:20.279Z,81.58
2023-02-23T10:45:51.626Z,80.44
2023-02-23T10:49:24.586Z,80.37
2023-02-23T10:53:00.983Z,80.78
2023-02-23T10:56:35.941Z,81.14
2023-02-23T11:00:33.493Z,80.49
2023-02-23T11:04:05.967Z,80.21
2023-02-23T11:07:32.538Z,80.43
2023-02-23T11:11:06.228Z,80.55
2023-02-23T11:14:32.261Z,80.93
2023-02-23T11:17:59.215Z,80.86
2023-02-23T11:21:27.094Z,81.10
2023-02-23T11:24:52.715Z,81.29
2023-02-23T11:28:23.352Z,81.52
2023-02-23T11:31:51.464Z,80.88
2023-02-23T11:35:28.930Z,81.32
2023-02-23T11:39:03.669Z,81.45
2023-02-23T11:42:33.702Z,81.79
2023-02-23T11:46:03.668Z,81.71
2023-02-23T11:49:32.932Z,82.82
2023-02-23T11:52:59.161Z,81.34
2023-02-23T11:56:28.059Z,82.50
2023-02-23T11:59:52.250Z,83.11
2023-02-23T12:03:26.383Z,83.44
2023-02-23T12:06:50.076Z,82.29
2023-02-23T12:10:18.982Z,82.87
2023-02-23T12:13:48.175Z,82.76
2023-02-23T12:17:18.397Z,82.99
2023-02-23T12:20:49.544Z,83.03
2023-02-23T12:24:23.049Z,83.38
2023-02-23T12:27:53.518Z,83.40
2023-02-23T12:31:26.250Z,83.88
2023-02-23T12:34:57.120Z,83.01
2023-02-23T12:38:33.619Z,83.78
2023-02-23T12:42:03.444Z,83.46
2023-02-23T12:45:36.844Z,83.92
2023-02-23T12:49:09.505Z,84.37
2023-02-23T12:52:39.816Z,84.49
2023-02-23T12:56:29.526Z,84.02
2023-02-23T13:00:37.846Z,83.77
2023-02-23T13:04:22.724Z,84.38
2023-02-23T13:08:08.121Z,85.20
2023-02-23T13:11:54.220Z,85.67
2023-02-23T13:15:27.532Z,84.97
2023-02-23T13:19:02.907Z,84.58
2023-02-23T13:22:34.026Z,85.96
2023-02-23T13:26:03.534Z,85.98
2023-02-23T13:29:36.696Z,85.79
2023-02-23T13:33:01.027Z,85.30
2023-02-23T13:36:25.523Z,85.85
2023-02-23T13:40:17.569Z,85.36
2023-02-23T13:43:52.810Z,86.31
2023-02-23T13:47:29.907Z,86.02
2023-02-23T13:50:58.807Z,86.22
2023-02-23T13:54:29.850Z,86.42
2023-02-23T13:57:53.734Z,87.25
2023-02-23T14:01:20.604Z,86.98
2023-02-23T14:04:46.613Z,86.94
2023-02-23T14:08:10.688Z,87.05
2023-02-23T14:11:50.453Z,87.67
2023-02-23T14:15:42.296Z,87.24
2023-02-23T14:19:33.536Z,87.55
2023-02-23T14:23:36.931Z,87.72
2023-02-23T14:27:41.391Z,88.88
2023-02-23T14:31:21.061Z,88.74
2023-02-23T14:34:54.318Z,89.73
2023-02-23T14:38:47.392Z,89.78
2023-02-23T14:42:23.717Z,90.16
2023-02-23T14:45:49.171Z,90.77
2023-02-23T14:49:21.967Z,91.31
2023-02-23T14:52:45.840Z,91.23
2023-02-23T14:56:21.506Z,92.19
2023-02-23T14:59:46.912Z,91.97
2023-02-23T15:03:15.198Z,91.73
2023-02-23T15:06:42.362Z,92.95
2023-02-23T15:10:11.064Z,92.76
2023-02-23T15:17:01.682Z,93.49
2023-02-23T15:20:32.936Z,93.78
2023-02-23T15:24:09.718Z,93.75
2023-02-23T15:27:43.150Z,93.30
2023-02-23T15:31:13.329Z,93.70
2023-02-23T15:34:38.877Z,94.10
2023-02-23T15:38:14.074Z,94.05
2023-02-23T15:41:50.598Z,94.92
2023-02-23T15:45:20.426Z,95.13
2023-02-23T15:48:48.912Z,94.63
2023-02-23T15:52:21.879Z,95.17
2023-02-23T15:55:46.783Z,95.18
2023-02-23T15:59:16.376Z,95.40
2023-02-23T16:02:39.775Z,95.50
2023-02-23T16:06:05.736Z,95.84
2023-02-23T16:09:32.401Z,96.01
2023-02-23T16:12:57.281Z,96.44
2023-02-23T16:16:25.687Z,96.49
2023-02-23T16:19:49.798Z,96.47
2023-02-23T16:23:25.238Z,96.00
2023-02-23T16:27:00.890Z,96.54
2023-02-23T16:30:35.606Z,97.06
2023-02-23T16:34:02.560Z,96.72
2023-02-23T16:37:28.215Z,97.06
2023-02-23T16:40:52.679Z,97.10
2023-02-23T16:44:26.298Z,97.58
2023-02-23T16:47:53.973Z,97.60
2023-02-23T16:51:19.791Z,96.92
2023-02-23T16:54:43.258Z,97.34
2023-02-23T16:58:11.746Z,96.87
2023-02-23T17:01:36.845Z,97.77
2023-02-23T17:05:00.436Z,97.42
2023-02-23T17:08:23.701Z,97.08
2023-02-23T17:11:47.682Z,97.42
2023-02-23T17:15:19.764Z,97.11
2023-02-23T17:18:46.104Z,97.69
2023-02-23T17:22:10.081Z,97.09
2023-02-23T17:25:35.408Z,97.67
2023-02-23T17:28:59.789Z,97.58
2023-02-23T17:32:25.116Z,97.47
2023-02-23T17:35:50.629Z,97.65
2023-02-23T17:39:17.595Z,98.02
2023-02-23T17:42:41.352Z,97.46
2023-02-23T17:46:04.754Z,98.22
2023-02-23T17:49:29.227Z,98.54
2023-02-23T17:52:54.841Z,98.02
2023-02-23T17:56:18.818Z,97.93
2023-02-23T17:59:43.009Z,97.89
2023-02-23T18:03:07.117Z,97.88
2023-02-23T18:06:31.808Z,98.39
2023-02-23T18:09:56.453Z,98.07
2023-02-23T18:13:20.074Z,98.35
2023-02-23T18:16:43.744Z,97.82
2023-02-23T18:20:08.052Z,98.44
2023-02-23T18:23:33.083Z,98.60
2023-02-23T18:27:02.865Z,99.09
2023-02-23T18:30:27.811Z,99.39
2023-02-23T18:33:53.178Z,99.50
2023-02-23T18:37:22.091Z,99.22
2023-02-23T18:40:45.871Z,99.90
2023-02-23T18:44:13.919Z,99.37
2023-02-23T18:47:37.936Z,99.25
2023-02-23T18:51:01.815Z,99.74
2023-02-23T18:54:27.350Z,99.50
2023-02-23T18:57:51.830Z,99.35
2023-02-23T19:01:21.373Z,99.79
2023-02-23T19:04:44.858Z,99.52
2023-02-23T19:08:14.125Z,99.61
2023-02-23T19:11:39.849Z,99.71
2023-02-23T19:15:07.860Z,99.99
2023-02-23T19:18:33.950Z,100.00
2023-02-23T19:21:59.577Z,99.91
2023-02-23T19:25:22.747Z,100.00
2023-02-23T19:28:45.923Z,100.00
2023-02-23T19:32:10.211Z,100.00
2023-02-23T19:35:35.721Z,99.91
2023-02-23T19:39:07.078Z,100.00
2023-02-23T19:42:33.526Z,99.91
2023-02-23T19:45:56.886Z,100.00
2023-02-23T19:49:20.469Z,100.00
2023-02-23T19:52:46.804Z,99.88
2023-02-23T19:56:12.837Z,100.00
2023-02-23T19:59:35.799Z,100.00
2023-02-23T20:03:03.775Z,100.00
2023-02-23T20:06:31.135Z,100.00
2023-02-23T20:09:56.146Z,99.88
2023-02-23T20:13:21.463Z,99.50
2023-02-23T20:16:44.147Z,99.83
2023-02-23T20:20:11.472Z,99.65
2023-02-23T20:23:36.184Z,99.72
2023-02-23T20:27:01.386Z,99.71
2023-02-23T20:30:24.793Z,99.65
2023-02-23T20:33:50.683Z,99.69
2023-02-23T20:37:14.057Z,99.73
2023-02-23T20:40:37.728Z,99.83
2023-02-23T20:44:03.007Z,99.86
2023-02-23T20:47:27.019Z,99.84
2023-02-23T20:50:55.833Z,100.00
2023-02-23T20:54:20.946Z,99.84
2023-02-23T20:57:44.542Z,100.00
2023-02-23T21:01:24.270Z,100.00
2023-02-23T21:04:48.663Z,100.00
2023-02-23T21:08:12.646Z,100.00
2023-02-23T21:11:36.635Z,100.00
2023-02-23T21:15:00.060Z,100.00
2023-02-23T21:18:24.700Z,100.00
2023-02-23T21:21:50.031Z,100.00
2023-02-23T21:25:13.901Z,100.00
2023-02-23T21:28:38.293Z,100.00
2023-02-23T21:32:01.971Z,100.00
2023-02-23T21:35:27.698Z,100.00
2023-02-23T21:38:52.029Z,100.00
2023-02-23T21:42:17.200Z,100.00
2023-02-23T21:45:42.093Z,100.00
2023-02-23T21:49:10.289Z,100.00
2023-02-23T21:52:35.909Z,100.00
2023-02-23T21:55:59.993Z,100.00
2023-02-23T21:59:23.881Z,100.00
2023-02-23T22:02:47.519Z,100.00
2023-02-23T22:06:10.614Z,100.00
2023-02-23T22:09:36.038Z,100.00
2023-02-23T22:13:00.740Z,100.00
2023-02-23T22:16:25.066Z,100.00
2023-02-23T22:19:52.181Z,100.00
2023-02-23T22:23:15.658Z,100.00
2023-02-23T22:26:43.734Z,100.00
2023-02-23T22:30:10.122Z,100.00
2023-02-23T22:33:34.056Z,100.00
2023-02-23T22:36:56.914Z,100.00
2023-02-23T22:40:21.715Z,100.00
2023-02-23T22:43:49.087Z,100.00
2023-02-23T22:47:12.194Z,100.00
2023-02-23T22:50:37.364Z,100.00
2023-02-23T22:54:00.930Z,100.00
2023-02-23T22:57:24.095Z,100.00
2023-02-23T23:01:02.720Z,100.00
2023-02-23T23:04:28.268Z,100.00
2023-02-23T23:07:52.938Z,100.00
2023-02-23T23:11:19.839Z,100.00
2023-02-23T23:14:43.054Z,100.00
2023-02-23T23:18:14.308Z,100.00
2023-02-23T23:21:38.906Z,100.00
2023-02-23T23:25:02.892Z,100.00
2023-02-23T23:28:29.230Z,100.00
2023-02-23T23:31:54.354Z,100.00
2023-02-23T23:35:22.318Z,100.00
2023-02-23T23:38:46.918Z,100.00
2023-02-23T23:42:11.315Z,100.00
2023-02-23T23:45:39.201Z,100.00
2023-02-23T23:49:06.344Z,100.00
2023-02-23T23:52:36.068Z,100.00
2023-02-23T23:56:06.603Z,100.00
2023-02-23T23:59:30.088Z,100.00
